sensor_id;sensor_type;location;lat;lon;timestamp;P1;durP1;ratioP1;P2;durP2;ratioP2
34924;SDS011;21130;51.728;8.748;2022-07-12T00:01:15;6.75;;;6.07;;
34924;SDS011;21130;51.728;8.748;2022-07-12T00:03:40;6.60;;;6.10;;
34924;SDS011;21130;51.728;8.748;2022-07-12T00:06:05;6.95;;;6.35;;
34924;SDS011;21130;51.728;8.748;2022-07-12T00:08:31;7.80;;;6.53;;
34924;SDS011;21130;51.728;8.748;2022-07-12T00:10:56;7.55;;;6.85;;
34924;SDS011;21130;51.728;8.748;2022-07-12T00:13:23;7.30;;;6.60;;
34924;SDS011;21130;51.728;8.748;2022-07-12T00:15:48;7.65;;;6.88;;
34924;SDS011;21130;51.728;8.748;2022-07-12T00:18:14;8.20;;;7.40;;
34924;SDS011;21130;51.728;8.748;2022-07-12T00:20:39;8.18;;;7.47;;
34924;SDS011;21130;51.728;8.748;2022-07-12T00:23:05;7.68;;;6.97;;
34924;SDS011;21130;51.728;8.748;2022-07-12T00:25:30;7.78;;;7.13;;
34924;SDS011;21130;51.728;8.748;2022-07-12T00:27:56;7.72;;;7.13;;
34924;SDS011;21130;51.728;8.748;2022-07-12T00:30:21;8.75;;;7.95;;
34924;SDS011;21130;51.728;8.748;2022-07-12T00:32:47;9.00;;;8.27;;
34924;SDS011;21130;51.728;8.748;2022-07-12T00:35:13;7.82;;;7.13;;
34924;SDS011;21130;51.728;8.748;2022-07-12T00:37:39;7.63;;;7.03;;
34924;SDS011;21130;51.728;8.748;2022-07-12T00:40:06;7.88;;;7.18;;
34924;SDS011;21130;51.728;8.748;2022-07-12T00:42:34;6.70;;;6.05;;
34924;SDS011;21130;51.728;8.748;2022-07-12T00:45:00;6.90;;;6.30;;
34924;SDS011;21130;51.728;8.748;2022-07-12T00:47:33;6.78;;;6.20;;
34924;SDS011;21130;51.728;8.748;2022-07-12T00:50:08;7.18;;;6.60;;
34924;SDS011;21130;51.728;8.748;2022-07-12T00:52:41;7.03;;;6.43;;
34924;SDS011;21130;51.728;8.748;2022-07-12T00:55:08;7.72;;;6.65;;
34924;SDS011;21130;51.728;8.748;2022-07-12T00:57:36;6.90;;;6.30;;
34924;SDS011;21130;51.728;8.748;2022-07-12T01:00:08;6.32;;;5.82;;
34924;SDS011;21130;51.728;8.748;2022-07-12T01:02:36;7.15;;;6.00;;
34924;SDS011;21130;51.728;8.748;2022-07-12T01:05:02;6.57;;;6.00;;
34924;SDS011;21130;51.728;8.748;2022-07-12T01:07:30;8.02;;;6.00;;
34924;SDS011;21130;51.728;8.748;2022-07-12T01:09:56;6.18;;;5.57;;
34924;SDS011;21130;51.728;8.748;2022-07-12T01:12:34;5.65;;;5.15;;
34924;SDS011;21130;51.728;8.748;2022-07-12T01:15:01;5.95;;;5.55;;
34924;SDS011;21130;51.728;8.748;2022-07-12T01:17:27;6.75;;;5.63;;
34924;SDS011;21130;51.728;8.748;2022-07-12T01:19:54;5.55;;;5.10;;
34924;SDS011;21130;51.728;8.748;2022-07-12T01:22:21;8.07;;;5.97;;
34924;SDS011;21130;51.728;8.748;2022-07-12T01:24:52;7.65;;;5.35;;
34924;SDS011;21130;51.728;8.748;2022-07-12T01:27:18;5.88;;;5.47;;
34924;SDS011;21130;51.728;8.748;2022-07-12T01:29:43;5.50;;;5.00;;
34924;SDS011;21130;51.728;8.748;2022-07-12T01:32:09;5.28;;;4.88;;
34924;SDS011;21130;51.728;8.748;2022-07-12T01:34:50;6.72;;;5.30;;
34924;SDS011;21130;51.728;8.748;2022-07-12T01:37:18;5.80;;;5.30;;
34924;SDS011;21130;51.728;8.748;2022-07-12T01:39:44;7.28;;;6.18;;
34924;SDS011;21130;51.728;8.748;2022-07-12T01:42:10;7.50;;;6.30;;
34924;SDS011;21130;51.728;8.748;2022-07-12T01:44:36;6.53;;;5.82;;
34924;SDS011;21130;51.728;8.748;2022-07-12T01:47:02;6.90;;;6.20;;
34924;SDS011;21130;51.728;8.748;2022-07-12T01:49:28;6.50;;;6.00;;
34924;SDS011;21130;51.728;8.748;2022-07-12T01:51:54;6.00;;;5.40;;
34924;SDS011;21130;51.728;8.748;2022-07-12T01:54:20;6.15;;;5.65;;
34924;SDS011;21130;51.728;8.748;2022-07-12T01:56:45;7.63;;;5.45;;
34924;SDS011;21130;51.728;8.748;2022-07-12T01:59:12;6.32;;;5.80;;
34924;SDS011;21130;51.728;8.748;2022-07-12T02:01:37;8.43;;;6.25;;
34924;SDS011;21130;51.728;8.748;2022-07-12T02:04:03;8.35;;;6.60;;
34924;SDS011;21130;51.728;8.748;2022-07-12T02:06:29;9.48;;;6.53;;
34924;SDS011;21130;51.728;8.748;2022-07-12T02:08:55;8.10;;;6.28;;
34924;SDS011;21130;51.728;8.748;2022-07-12T02:11:20;6.10;;;5.68;;
34924;SDS011;21130;51.728;8.748;2022-07-12T02:13:46;6.68;;;6.03;;
34924;SDS011;21130;51.728;8.748;2022-07-12T02:16:11;7.25;;;6.18;;
34924;SDS011;21130;51.728;8.748;2022-07-12T02:18:36;6.50;;;5.90;;
34924;SDS011;21130;51.728;8.748;2022-07-12T02:21:02;7.10;;;5.68;;
34924;SDS011;21130;51.728;8.748;2022-07-12T02:23:27;6.18;;;5.68;;
34924;SDS011;21130;51.728;8.748;2022-07-12T02:25:53;6.35;;;5.75;;
34924;SDS011;21130;51.728;8.748;2022-07-12T02:28:19;6.85;;;5.43;;
34924;SDS011;21130;51.728;8.748;2022-07-12T02:30:45;6.43;;;5.68;;
34924;SDS011;21130;51.728;8.748;2022-07-12T02:33:11;6.15;;;5.55;;
34924;SDS011;21130;51.728;8.748;2022-07-12T02:35:36;5.57;;;5.18;;
34924;SDS011;21130;51.728;8.748;2022-07-12T02:38:02;6.07;;;5.47;;
34924;SDS011;21130;51.728;8.748;2022-07-12T02:40:27;6.63;;;6.10;;
34924;SDS011;21130;51.728;8.748;2022-07-12T02:43:11;7.32;;;6.63;;
34924;SDS011;21130;51.728;8.748;2022-07-12T02:45:36;7.32;;;6.60;;
34924;SDS011;21130;51.728;8.748;2022-07-12T02:48:13;7.93;;;6.80;;
34924;SDS011;21130;51.728;8.748;2022-07-12T02:50:39;6.82;;;6.13;;
34924;SDS011;21130;51.728;8.748;2022-07-12T02:53:05;6.25;;;5.55;;
34924;SDS011;21130;51.728;8.748;2022-07-12T02:55:31;7.90;;;7.10;;
34924;SDS011;21130;51.728;8.748;2022-07-12T02:57:57;7.30;;;6.25;;
34924;SDS011;21130;51.728;8.748;2022-07-12T03:00:43;6.82;;;6.13;;
34924;SDS011;21130;51.728;8.748;2022-07-12T03:03:27;7.30;;;6.60;;
34924;SDS011;21130;51.728;8.748;2022-07-12T03:05:53;6.80;;;6.07;;
34924;SDS011;21130;51.728;8.748;2022-07-12T03:08:18;7.70;;;7.00;;
34924;SDS011;21130;51.728;8.748;2022-07-12T03:10:43;9.20;;;7.38;;
34924;SDS011;21130;51.728;8.748;2022-07-12T03:13:11;11.75;;;6.97;;
34924;SDS011;21130;51.728;8.748;2022-07-12T03:15:37;8.73;;;7.60;;
34924;SDS011;21130;51.728;8.748;2022-07-12T03:18:02;8.45;;;7.03;;
34924;SDS011;21130;51.728;8.748;2022-07-12T03:20:28;8.77;;;6.43;;
34924;SDS011;21130;51.728;8.748;2022-07-12T03:22:54;9.27;;;6.72;;
34924;SDS011;21130;51.728;8.748;2022-07-12T03:25:20;11.52;;;7.63;;
34924;SDS011;21130;51.728;8.748;2022-07-12T03:27:46;12.02;;;7.38;;
34924;SDS011;21130;51.728;8.748;2022-07-12T03:30:21;7.75;;;6.70;;
34924;SDS011;21130;51.728;8.748;2022-07-12T03:32:46;7.63;;;6.93;;
34924;SDS011;21130;51.728;8.748;2022-07-12T03:35:11;6.80;;;6.20;;
34924;SDS011;21130;51.728;8.748;2022-07-12T03:37:50;7.65;;;6.78;;
34924;SDS011;21130;51.728;8.748;2022-07-12T03:40:40;7.50;;;6.80;;
34924;SDS011;21130;51.728;8.748;2022-07-12T03:43:09;8.25;;;7.05;;
34924;SDS011;21130;51.728;8.748;2022-07-12T03:45:34;10.15;;;7.80;;
34924;SDS011;21130;51.728;8.748;2022-07-12T03:48:00;10.88;;;8.63;;
34924;SDS011;21130;51.728;8.748;2022-07-12T03:50:25;8.82;;;7.22;;
34924;SDS011;21130;51.728;8.748;2022-07-12T03:52:50;10.05;;;8.30;;
34924;SDS011;21130;51.728;8.748;2022-07-12T03:55:16;8.90;;;8.10;;
34924;SDS011;21130;51.728;8.748;2022-07-12T03:57:54;12.25;;;7.53;;
34924;SDS011;21130;51.728;8.748;2022-07-12T04:00:19;12.85;;;8.27;;
34924;SDS011;21130;51.728;8.748;2022-07-12T04:02:44;8.05;;;7.25;;
34924;SDS011;21130;51.728;8.748;2022-07-12T04:05:11;12.43;;;8.70;;
34924;SDS011;21130;51.728;8.748;2022-07-12T04:07:37;7.90;;;7.20;;
34924;SDS011;21130;51.728;8.748;2022-07-12T04:10:04;9.27;;;8.35;;
34924;SDS011;21130;51.728;8.748;2022-07-12T04:12:33;8.68;;;7.30;;
34924;SDS011;21130;51.728;8.748;2022-07-12T04:14:59;10.60;;;7.30;;
34924;SDS011;21130;51.728;8.748;2022-07-12T04:17:24;9.63;;;8.02;;
34924;SDS011;21130;51.728;8.748;2022-07-12T04:19:49;15.43;;;8.10;;
34924;SDS011;21130;51.728;8.748;2022-07-12T04:22:15;10.48;;;7.80;;
34924;SDS011;21130;51.728;8.748;2022-07-12T04:24:40;9.93;;;7.43;;
34924;SDS011;21130;51.728;8.748;2022-07-12T04:27:05;8.95;;;7.70;;
34924;SDS011;21130;51.728;8.748;2022-07-12T04:29:31;9.65;;;6.43;;
34924;SDS011;21130;51.728;8.748;2022-07-12T04:32:00;10.32;;;7.43;;
34924;SDS011;21130;51.728;8.748;2022-07-12T04:34:26;9.45;;;7.30;;
34924;SDS011;21130;51.728;8.748;2022-07-12T04:36:51;20.38;;;10.10;;
34924;SDS011;21130;51.728;8.748;2022-07-12T04:39:16;12.07;;;7.75;;
34924;SDS011;21130;51.728;8.748;2022-07-12T04:41:42;12.52;;;7.65;;
34924;SDS011;21130;51.728;8.748;2022-07-12T04:44:07;13.60;;;7.65;;
34924;SDS011;21130;51.728;8.748;2022-07-12T04:46:33;12.38;;;7.85;;
34924;SDS011;21130;51.728;8.748;2022-07-12T04:48:59;10.82;;;6.78;;
34924;SDS011;21130;51.728;8.748;2022-07-12T04:51:24;11.10;;;7.10;;
34924;SDS011;21130;51.728;8.748;2022-07-12T04:53:50;11.65;;;6.72;;
34924;SDS011;21130;51.728;8.748;2022-07-12T04:56:16;10.70;;;6.78;;
34924;SDS011;21130;51.728;8.748;2022-07-12T04:58:41;11.02;;;7.05;;
34924;SDS011;21130;51.728;8.748;2022-07-12T05:01:06;12.05;;;6.50;;
34924;SDS011;21130;51.728;8.748;2022-07-12T05:03:32;10.68;;;7.13;;
34924;SDS011;21130;51.728;8.748;2022-07-12T05:05:58;13.45;;;5.88;;
34924;SDS011;21130;51.728;8.748;2022-07-12T05:08:23;10.50;;;6.75;;
34924;SDS011;21130;51.728;8.748;2022-07-12T05:10:48;10.68;;;7.80;;
34924;SDS011;21130;51.728;8.748;2022-07-12T05:13:14;12.85;;;7.18;;
34924;SDS011;21130;51.728;8.748;2022-07-12T05:15:39;10.88;;;6.38;;
34924;SDS011;21130;51.728;8.748;2022-07-12T05:18:04;12.23;;;6.68;;
34924;SDS011;21130;51.728;8.748;2022-07-12T05:20:30;13.00;;;8.18;;
34924;SDS011;21130;51.728;8.748;2022-07-12T05:22:55;11.88;;;6.95;;
34924;SDS011;21130;51.728;8.748;2022-07-12T05:25:21;13.55;;;5.97;;
34924;SDS011;21130;51.728;8.748;2022-07-12T05:27:46;16.67;;;8.85;;
34924;SDS011;21130;51.728;8.748;2022-07-12T05:30:11;16.48;;;8.23;;
34924;SDS011;21130;51.728;8.748;2022-07-12T05:32:37;14.27;;;6.47;;
34924;SDS011;21130;51.728;8.748;2022-07-12T05:35:02;8.88;;;5.40;;
34924;SDS011;21130;51.728;8.748;2022-07-12T05:37:28;13.98;;;5.45;;
34924;SDS011;21130;51.728;8.748;2022-07-12T05:39:54;9.57;;;5.60;;
34924;SDS011;21130;51.728;8.748;2022-07-12T05:42:19;10.25;;;5.20;;
34924;SDS011;21130;51.728;8.748;2022-07-12T05:44:44;10.75;;;5.57;;
34924;SDS011;21130;51.728;8.748;2022-07-12T05:47:10;9.13;;;4.60;;
34924;SDS011;21130;51.728;8.748;2022-07-12T05:49:36;8.35;;;6.57;;
34924;SDS011;21130;51.728;8.748;2022-07-12T05:52:01;8.55;;;5.00;;
34924;SDS011;21130;51.728;8.748;2022-07-12T05:54:45;9.43;;;5.00;;
34924;SDS011;21130;51.728;8.748;2022-07-12T05:57:10;5.93;;;4.43;;
34924;SDS011;21130;51.728;8.748;2022-07-12T05:59:36;10.63;;;4.68;;
34924;SDS011;21130;51.728;8.748;2022-07-12T06:02:01;9.52;;;5.03;;
34924;SDS011;21130;51.728;8.748;2022-07-12T06:04:27;7.95;;;4.93;;
34924;SDS011;21130;51.728;8.748;2022-07-12T06:06:53;7.78;;;4.90;;
34924;SDS011;21130;51.728;8.748;2022-07-12T06:09:20;11.65;;;6.25;;
34924;SDS011;21130;51.728;8.748;2022-07-12T06:11:45;13.02;;;6.47;;
34924;SDS011;21130;51.728;8.748;2022-07-12T06:14:10;7.88;;;6.22;;
34924;SDS011;21130;51.728;8.748;2022-07-12T06:16:36;9.50;;;7.20;;
34924;SDS011;21130;51.728;8.748;2022-07-12T06:19:01;20.35;;;7.97;;
34924;SDS011;21130;51.728;8.748;2022-07-12T06:21:27;10.73;;;6.78;;
34924;SDS011;21130;51.728;8.748;2022-07-12T06:23:52;9.18;;;7.18;;
34924;SDS011;21130;51.728;8.748;2022-07-12T06:26:18;13.88;;;7.65;;
34924;SDS011;21130;51.728;8.748;2022-07-12T06:28:59;14.40;;;7.90;;
34924;SDS011;21130;51.728;8.748;2022-07-12T06:31:25;9.80;;;6.50;;
34924;SDS011;21130;51.728;8.748;2022-07-12T06:33:51;9.23;;;6.40;;
34924;SDS011;21130;51.728;8.748;2022-07-12T06:36:17;10.73;;;6.68;;
34924;SDS011;21130;51.728;8.748;2022-07-12T06:38:42;8.23;;;6.72;;
34924;SDS011;21130;51.728;8.748;2022-07-12T06:41:07;10.45;;;6.53;;
34924;SDS011;21130;51.728;8.748;2022-07-12T06:43:33;11.63;;;7.00;;
34924;SDS011;21130;51.728;8.748;2022-07-12T06:45:58;9.95;;;6.50;;
34924;SDS011;21130;51.728;8.748;2022-07-12T06:48:24;7.32;;;5.35;;
34924;SDS011;21130;51.728;8.748;2022-07-12T06:50:49;7.13;;;6.30;;
34924;SDS011;21130;51.728;8.748;2022-07-12T06:53:14;10.68;;;6.03;;
34924;SDS011;21130;51.728;8.748;2022-07-12T06:55:42;9.38;;;5.80;;
34924;SDS011;21130;51.728;8.748;2022-07-12T06:58:08;7.85;;;5.05;;
34924;SDS011;21130;51.728;8.748;2022-07-12T07:00:33;13.18;;;6.00;;
34924;SDS011;21130;51.728;8.748;2022-07-12T07:02:58;4.53;;;4.15;;
34924;SDS011;21130;51.728;8.748;2022-07-12T07:05:24;4.25;;;3.95;;
34924;SDS011;21130;51.728;8.748;2022-07-12T07:07:49;10.15;;;4.82;;
34924;SDS011;21130;51.728;8.748;2022-07-12T07:10:15;6.30;;;4.35;;
34924;SDS011;21130;51.728;8.748;2022-07-12T07:12:40;5.10;;;3.67;;
34924;SDS011;21130;51.728;8.748;2022-07-12T07:15:06;6.72;;;3.80;;
34924;SDS011;21130;51.728;8.748;2022-07-12T07:17:32;4.20;;;3.50;;
34924;SDS011;21130;51.728;8.748;2022-07-12T07:19:57;6.53;;;2.90;;
34924;SDS011;21130;51.728;8.748;2022-07-12T07:22:22;3.42;;;2.58;;
34924;SDS011;21130;51.728;8.748;2022-07-12T07:24:51;2.78;;;2.17;;
34924;SDS011;21130;51.728;8.748;2022-07-12T07:27:16;3.70;;;2.75;;
34924;SDS011;21130;51.728;8.748;2022-07-12T07:29:41;3.78;;;3.05;;
34924;SDS011;21130;51.728;8.748;2022-07-12T07:32:25;3.92;;;3.10;;
34924;SDS011;21130;51.728;8.748;2022-07-12T07:34:52;2.33;;;2.10;;
34924;SDS011;21130;51.728;8.748;2022-07-12T07:37:17;2.13;;;1.90;;
34924;SDS011;21130;51.728;8.748;2022-07-12T07:39:42;1.75;;;1.65;;
34924;SDS011;21130;51.728;8.748;2022-07-12T07:42:08;1.50;;;1.40;;
34924;SDS011;21130;51.728;8.748;2022-07-12T07:44:33;1.80;;;1.70;;
34924;SDS011;21130;51.728;8.748;2022-07-12T07:46:58;1.92;;;1.83;;
34924;SDS011;21130;51.728;8.748;2022-07-12T07:49:24;2.13;;;1.85;;
34924;SDS011;21130;51.728;8.748;2022-07-12T07:51:49;1.95;;;1.67;;
34924;SDS011;21130;51.728;8.748;2022-07-12T07:54:15;3.47;;;2.10;;
34924;SDS011;21130;51.728;8.748;2022-07-12T07:56:40;1.98;;;1.77;;
34924;SDS011;21130;51.728;8.748;2022-07-12T07:59:05;2.83;;;2.03;;
34924;SDS011;21130;51.728;8.748;2022-07-12T08:01:32;2.78;;;2.20;;
34924;SDS011;21130;51.728;8.748;2022-07-12T08:04:16;2.22;;;1.63;;
34924;SDS011;21130;51.728;8.748;2022-07-12T08:06:44;1.80;;;1.70;;
34924;SDS011;21130;51.728;8.748;2022-07-12T08:09:11;1.92;;;1.80;;
34924;SDS011;21130;51.728;8.748;2022-07-12T08:11:38;1.63;;;1.52;;
34924;SDS011;21130;51.728;8.748;2022-07-12T08:14:04;2.10;;;1.90;;
34924;SDS011;21130;51.728;8.748;2022-07-12T08:16:30;1.70;;;1.60;;
34924;SDS011;21130;51.728;8.748;2022-07-12T08:18:56;1.52;;;1.42;;
34924;SDS011;21130;51.728;8.748;2022-07-12T08:21:21;2.13;;;1.92;;
34924;SDS011;21130;51.728;8.748;2022-07-12T08:23:47;2.67;;;2.00;;
34924;SDS011;21130;51.728;8.748;2022-07-12T08:26:12;1.90;;;1.80;;
34924;SDS011;21130;51.728;8.748;2022-07-12T08:28:37;3.83;;;1.83;;
34924;SDS011;21130;51.728;8.748;2022-07-12T08:31:02;1.98;;;1.77;;
34924;SDS011;21130;51.728;8.748;2022-07-12T08:33:28;1.60;;;1.50;;
34924;SDS011;21130;51.728;8.748;2022-07-12T08:35:54;1.60;;;1.50;;
34924;SDS011;21130;51.728;8.748;2022-07-12T08:38:20;2.17;;;1.85;;
34924;SDS011;21130;51.728;8.748;2022-07-12T08:40:45;2.75;;;1.63;;
34924;SDS011;21130;51.728;8.748;2022-07-12T08:43:10;1.70;;;1.60;;
34924;SDS011;21130;51.728;8.748;2022-07-12T08:45:36;1.98;;;1.77;;
34924;SDS011;21130;51.728;8.748;2022-07-12T08:48:01;3.20;;;1.80;;
34924;SDS011;21130;51.728;8.748;2022-07-12T08:50:27;2.13;;;1.73;;
34924;SDS011;21130;51.728;8.748;2022-07-12T08:52:53;2.17;;;1.98;;
34924;SDS011;21130;51.728;8.748;2022-07-12T08:55:21;2.53;;;2.22;;
34924;SDS011;21130;51.728;8.748;2022-07-12T08:57:47;2.08;;;1.90;;
34924;SDS011;21130;51.728;8.748;2022-07-12T09:00:13;2.13;;;1.80;;
34924;SDS011;21130;51.728;8.748;2022-07-12T09:02:42;2.47;;;2.28;;
34924;SDS011;21130;51.728;8.748;2022-07-12T09:05:16;2.38;;;1.95;;
34924;SDS011;21130;51.728;8.748;2022-07-12T09:07:42;2.85;;;1.75;;
34924;SDS011;21130;51.728;8.748;2022-07-12T09:10:09;2.20;;;2.00;;
34924;SDS011;21130;51.728;8.748;2022-07-12T09:12:36;2.00;;;1.90;;
34924;SDS011;21130;51.728;8.748;2022-07-12T09:15:15;4.82;;;1.73;;
34924;SDS011;21130;51.728;8.748;2022-07-12T09:17:46;1.98;;;1.30;;
34924;SDS011;21130;51.728;8.748;2022-07-12T09:20:53;3.00;;;2.33;;
34924;SDS011;21130;51.728;8.748;2022-07-12T09:23:18;1.85;;;1.73;;
34924;SDS011;21130;51.728;8.748;2022-07-12T09:25:44;4.72;;;1.88;;
34924;SDS011;21130;51.728;8.748;2022-07-12T09:28:11;1.13;;;1.10;;
34924;SDS011;21130;51.728;8.748;2022-07-12T09:30:37;1.20;;;1.10;;
34924;SDS011;21130;51.728;8.748;2022-07-12T09:33:12;1.30;;;1.20;;
34924;SDS011;21130;51.728;8.748;2022-07-12T09:41:20;2.25;;;1.25;;
34924;SDS011;21130;51.728;8.748;2022-07-12T09:43:46;1.35;;;1.25;;
34924;SDS011;21130;51.728;8.748;2022-07-12T09:46:16;2.83;;;1.73;;
34924;SDS011;21130;51.728;8.748;2022-07-12T09:48:43;1.40;;;1.30;;
34924;SDS011;21130;51.728;8.748;2022-07-12T09:51:10;1.30;;;1.20;;
34924;SDS011;21130;51.728;8.748;2022-07-12T09:53:43;1.33;;;1.23;;
34924;SDS011;21130;51.728;8.748;2022-07-12T09:56:11;1.60;;;1.50;;
34924;SDS011;21130;51.728;8.748;2022-07-12T09:58:54;1.00;;;1.00;;
34924;SDS011;21130;51.728;8.748;2022-07-12T10:01:21;1.25;;;1.15;;
34924;SDS011;21130;51.728;8.748;2022-07-12T10:03:48;2.97;;;0.70;;
34924;SDS011;21130;51.728;8.748;2022-07-12T10:06:25;1.77;;;1.35;;
34924;SDS011;21130;51.728;8.748;2022-07-12T10:08:51;1.40;;;0.77;;
34924;SDS011;21130;51.728;8.748;2022-07-12T10:11:18;0.93;;;0.82;;
34924;SDS011;21130;51.728;8.748;2022-07-12T10:13:45;0.90;;;0.90;;
34924;SDS011;21130;51.728;8.748;2022-07-12T10:16:12;1.58;;;1.05;;
34924;SDS011;21130;51.728;8.748;2022-07-12T10:18:39;2.08;;;1.30;;
34924;SDS011;21130;51.728;8.748;2022-07-12T10:21:17;1.20;;;1.00;;
34924;SDS011;21130;51.728;8.748;2022-07-12T10:23:44;1.15;;;1.00;;
34924;SDS011;21130;51.728;8.748;2022-07-12T10:31:36;1.30;;;1.27;;
34924;SDS011;21130;51.728;8.748;2022-07-12T10:39:24;1.13;;;1.02;;
34924;SDS011;21130;51.728;8.748;2022-07-12T10:44:32;1.38;;;1.10;;
34924;SDS011;21130;51.728;8.748;2022-07-12T10:47:05;1.73;;;1.15;;
34924;SDS011;21130;51.728;8.748;2022-07-12T10:49:33;1.17;;;1.10;;
34924;SDS011;21130;51.728;8.748;2022-07-12T10:54:42;2.65;;;1.67;;
34924;SDS011;21130;51.728;8.748;2022-07-12T10:57:16;1.27;;;1.05;;
34924;SDS011;21130;51.728;8.748;2022-07-12T10:59:42;2.25;;;1.00;;
34924;SDS011;21130;51.728;8.748;2022-07-12T11:02:13;5.13;;;4.72;;
34924;SDS011;21130;51.728;8.748;2022-07-12T11:04:45;2.55;;;1.40;;
34924;SDS011;21130;51.728;8.748;2022-07-12T11:07:12;1.20;;;1.08;;
34924;SDS011;21130;51.728;8.748;2022-07-12T11:09:41;1.85;;;1.30;;
34924;SDS011;21130;51.728;8.748;2022-07-12T11:12:07;1.60;;;1.50;;
34924;SDS011;21130;51.728;8.748;2022-07-12T11:14:32;1.67;;;1.38;;
34924;SDS011;21130;51.728;8.748;2022-07-12T11:17:12;2.42;;;1.33;;
34924;SDS011;21130;51.728;8.748;2022-07-12T11:19:38;1.00;;;1.00;;
34924;SDS011;21130;51.728;8.748;2022-07-12T11:22:03;2.03;;;1.10;;
34924;SDS011;21130;51.728;8.748;2022-07-12T11:24:33;1.48;;;1.30;;
34924;SDS011;21130;51.728;8.748;2022-07-12T11:27:03;1.85;;;1.52;;
34924;SDS011;21130;51.728;8.748;2022-07-12T11:29:30;1.15;;;1.05;;
34924;SDS011;21130;51.728;8.748;2022-07-12T11:32:03;1.42;;;1.30;;
34924;SDS011;21130;51.728;8.748;2022-07-12T11:34:31;0.95;;;0.95;;
34924;SDS011;21130;51.728;8.748;2022-07-12T11:36:58;1.10;;;1.10;;
34924;SDS011;21130;51.728;8.748;2022-07-12T11:39:31;1.98;;;1.20;;
34924;SDS011;21130;51.728;8.748;2022-07-12T11:42:04;3.40;;;3.10;;
34924;SDS011;21130;51.728;8.748;2022-07-12T11:47:15;2.28;;;1.60;;
34924;SDS011;21130;51.728;8.748;2022-07-12T11:49:57;1.65;;;1.55;;
34924;SDS011;21130;51.728;8.748;2022-07-12T11:52:23;2.13;;;2.03;;
34924;SDS011;21130;51.728;8.748;2022-07-12T11:54:50;1.20;;;1.20;;
34924;SDS011;21130;51.728;8.748;2022-07-12T11:57:20;2.95;;;1.50;;
34924;SDS011;21130;51.728;8.748;2022-07-12T11:59:47;1.40;;;1.30;;
34924;SDS011;21130;51.728;8.748;2022-07-12T12:02:13;1.10;;;1.05;;
34924;SDS011;21130;51.728;8.748;2022-07-12T12:04:54;1.95;;;1.30;;
34924;SDS011;21130;51.728;8.748;2022-07-12T12:07:20;1.50;;;1.40;;
34924;SDS011;21130;51.728;8.748;2022-07-12T12:10:16;1.05;;;1.05;;
34924;SDS011;21130;51.728;8.748;2022-07-12T12:12:45;1.95;;;1.25;;
34924;SDS011;21130;51.728;8.748;2022-07-12T12:15:16;1.88;;;1.40;;
34924;SDS011;21130;51.728;8.748;2022-07-12T12:17:46;1.17;;;1.15;;
34924;SDS011;21130;51.728;8.748;2022-07-12T12:20:23;1.65;;;1.55;;
34924;SDS011;21130;51.728;8.748;2022-07-12T12:22:51;1.33;;;0.98;;
34924;SDS011;21130;51.728;8.748;2022-07-12T12:25:18;2.55;;;1.30;;
34924;SDS011;21130;51.728;8.748;2022-07-12T12:27:45;1.33;;;1.33;;
34924;SDS011;21130;51.728;8.748;2022-07-12T12:30:11;1.38;;;1.38;;
34924;SDS011;21130;51.728;8.748;2022-07-12T12:32:50;2.35;;;1.40;;
34924;SDS011;21130;51.728;8.748;2022-07-12T12:35:21;1.00;;;1.00;;
34924;SDS011;21130;51.728;8.748;2022-07-12T12:37:52;1.60;;;1.30;;
34924;SDS011;21130;51.728;8.748;2022-07-12T12:40:23;1.40;;;1.33;;
34924;SDS011;21130;51.728;8.748;2022-07-12T12:42:50;1.02;;;1.00;;
34924;SDS011;21130;51.728;8.748;2022-07-12T12:45:16;1.52;;;0.85;;
34924;SDS011;21130;51.728;8.748;2022-07-12T12:47:53;1.10;;;1.00;;
34924;SDS011;21130;51.728;8.748;2022-07-12T12:53:11;1.00;;;1.00;;
34924;SDS011;21130;51.728;8.748;2022-07-12T12:55:40;1.10;;;1.10;;
34924;SDS011;21130;51.728;8.748;2022-07-12T12:58:07;0.90;;;0.90;;
34924;SDS011;21130;51.728;8.748;2022-07-12T13:00:34;2.03;;;1.00;;
34924;SDS011;21130;51.728;8.748;2022-07-12T13:03:08;1.13;;;1.00;;
34924;SDS011;21130;51.728;8.748;2022-07-12T13:05:34;2.40;;;1.35;;
34924;SDS011;21130;51.728;8.748;2022-07-12T13:08:01;1.30;;;1.20;;
34924;SDS011;21130;51.728;8.748;2022-07-12T13:10:27;1.02;;;0.93;;
34924;SDS011;21130;51.728;8.748;2022-07-12T13:12:53;2.05;;;1.00;;
34924;SDS011;21130;51.728;8.748;2022-07-12T13:15:19;1.05;;;0.95;;
34924;SDS011;21130;51.728;8.748;2022-07-12T13:17:44;2.13;;;0.90;;
34924;SDS011;21130;51.728;8.748;2022-07-12T13:20:10;2.13;;;1.00;;
34924;SDS011;21130;51.728;8.748;2022-07-12T13:22:37;2.15;;;1.17;;
34924;SDS011;21130;51.728;8.748;2022-07-12T13:25:04;1.20;;;1.10;;
34924;SDS011;21130;51.728;8.748;2022-07-12T13:27:30;1.10;;;1.00;;
34924;SDS011;21130;51.728;8.748;2022-07-12T13:29:56;2.13;;;1.05;;
34924;SDS011;21130;51.728;8.748;2022-07-12T13:32:21;1.67;;;1.20;;
34924;SDS011;21130;51.728;8.748;2022-07-12T13:34:47;1.77;;;1.10;;
34924;SDS011;21130;51.728;8.748;2022-07-12T13:37:13;1.50;;;1.00;;
34924;SDS011;21130;51.728;8.748;2022-07-12T13:39:39;1.08;;;0.98;;
34924;SDS011;21130;51.728;8.748;2022-07-12T13:42:23;1.23;;;0.80;;
34924;SDS011;21130;51.728;8.748;2022-07-12T13:44:50;2.03;;;0.57;;
34924;SDS011;21130;51.728;8.748;2022-07-12T13:47:15;0.50;;;0.50;;
34924;SDS011;21130;51.728;8.748;2022-07-12T13:49:40;1.38;;;0.60;;
34924;SDS011;21130;51.728;8.748;2022-07-12T13:52:06;0.60;;;0.60;;
34924;SDS011;21130;51.728;8.748;2022-07-12T13:54:32;0.63;;;0.63;;
34924;SDS011;21130;51.728;8.748;2022-07-12T13:56:58;2.85;;;0.70;;
34924;SDS011;21130;51.728;8.748;2022-07-12T13:59:23;0.70;;;0.70;;
34924;SDS011;21130;51.728;8.748;2022-07-12T14:01:48;0.90;;;0.60;;
34924;SDS011;21130;51.728;8.748;2022-07-12T14:04:14;0.50;;;0.50;;
34924;SDS011;21130;51.728;8.748;2022-07-12T14:06:39;1.90;;;0.60;;
34924;SDS011;21130;51.728;8.748;2022-07-12T14:09:04;0.63;;;0.60;;
34924;SDS011;21130;51.728;8.748;2022-07-12T14:11:31;0.55;;;0.50;;
34924;SDS011;21130;51.728;8.748;2022-07-12T14:13:57;1.20;;;0.40;;
34924;SDS011;21130;51.728;8.748;2022-07-12T14:16:24;0.55;;;0.50;;
34924;SDS011;21130;51.728;8.748;2022-07-12T14:18:49;1.27;;;0.60;;
34924;SDS011;21130;51.728;8.748;2022-07-12T14:21:14;0.93;;;0.50;;
34924;SDS011;21130;51.728;8.748;2022-07-12T14:23:40;1.13;;;0.57;;
34924;SDS011;21130;51.728;8.748;2022-07-12T14:26:05;2.03;;;0.55;;
34924;SDS011;21130;51.728;8.748;2022-07-12T14:28:31;0.98;;;0.50;;
34924;SDS011;21130;51.728;8.748;2022-07-12T14:30:56;0.40;;;0.40;;
34924;SDS011;21130;51.728;8.748;2022-07-12T14:33:21;2.05;;;1.88;;
34924;SDS011;21130;51.728;8.748;2022-07-12T14:35:47;1.98;;;1.88;;
34924;SDS011;21130;51.728;8.748;2022-07-12T14:38:12;2.63;;;1.33;;
34924;SDS011;21130;51.728;8.748;2022-07-12T14:40:38;3.13;;;1.83;;
34924;SDS011;21130;51.728;8.748;2022-07-12T14:43:04;1.38;;;1.00;;
34924;SDS011;21130;51.728;8.748;2022-07-12T14:45:29;1.40;;;1.33;;
34924;SDS011;21130;51.728;8.748;2022-07-12T14:47:55;8.77;;;8.07;;
34924;SDS011;21130;51.728;8.748;2022-07-12T14:50:20;1.90;;;1.08;;
34924;SDS011;21130;51.728;8.748;2022-07-12T14:52:46;1.00;;;1.00;;
34924;SDS011;21130;51.728;8.748;2022-07-12T14:55:11;3.13;;;2.30;;
34924;SDS011;21130;51.728;8.748;2022-07-12T14:57:37;1.00;;;0.90;;
34924;SDS011;21130;51.728;8.748;2022-07-12T15:00:07;0.50;;;0.50;;
34924;SDS011;21130;51.728;8.748;2022-07-12T15:02:35;1.48;;;0.63;;
34924;SDS011;21130;51.728;8.748;2022-07-12T15:05:00;0.30;;;0.30;;
34924;SDS011;21130;51.728;8.748;2022-07-12T15:07:29;0.60;;;0.60;;
34924;SDS011;21130;51.728;8.748;2022-07-12T15:09:55;0.98;;;0.63;;
34924;SDS011;21130;51.728;8.748;2022-07-12T15:12:21;1.58;;;0.68;;
34924;SDS011;21130;51.728;8.748;2022-07-12T15:14:46;0.50;;;0.50;;